This is the latest recevied weather packets stored in our database for station/object Reichnbch. If no packets are shown the sender has not sent any weather packets the latest 10 day(s).
| Time | Temp. | Humidity | Pressure | Rain* | Wind** | Luminosity | Snow |
|---|---|---|---|---|---|---|---|
| 1777863732 | 12.22° C | 74% | 1015.6 hPa | 0 mm | - | - | - |
| 1777861931 | 12.78° C | 72% | 1015.6 hPa | 0 mm | - | - | - |
| 1777860132 | 12.78° C | 71% | 1015.5 hPa | 0 mm | - | - | - |
| 1777858331 | 13.33° C | 70% | 1015.6 hPa | 0 mm | - | - | - |
| 1777856531 | 13.33° C | 70% | 1015.5 hPa | 0 mm | - | - | - |
| 1777854730 | 13.89° C | 67% | 1015.5 hPa | 0 mm | - | - | - |
| 1777852928 | 14.44° C | 65% | 1015.6 hPa | 0 mm | - | - | - |
| 1777851129 | 14.44° C | 63% | 1015.9 hPa | 0 mm | - | - | - |
| 1777849329 | 15° C | 62% | 1016.1 hPa | 0 mm | - | - | - |
| 1777847530 | 15° C | 59% | 1016.2 hPa | 0 mm | - | - | - |
| 1777845732 | 15° C | 58% | 1015.9 hPa | 0 mm | - | - | - |
| 1777843930 | 15.56° C | 58% | 1015.9 hPa | 0 mm | - | - | - |
| 1777842131 | 15.56° C | 55% | 1015.6 hPa | 0 mm | - | - | - |
| 1777840329 | 16.11° C | 53% | 1015.5 hPa | 0 mm | - | - | - |
| 1777838531 | 16.67° C | 52% | 1015.3 hPa | 0 mm | - | - | - |
| 1777836730 | 17.78° C | 48% | 1014.9 hPa | 0 mm | - | - | - |
| 1777834930 | 18.33° C | 46% | 1014.6 hPa | 0 mm | - | - | - |
| 1777833130 | 19.44° C | 48% | 1014.2 hPa | 0 mm | - | - | - |
| 1777831330 | 20.56° C | 56% | 1013.4 hPa | 0 mm | - | - | - |
| 1777829530 | 20.56° C | 55% | 1013.5 hPa | 0 mm | - | - | - |
| 1777827731 | 21.67° C | 51% | 1013.3 hPa | 0 mm | - | - | - |
| 1777825930 | 22.22° C | 54% | 1013 hPa | 0 mm | - | - | - |
| 1777824131 | 22.78° C | 48% | 1013 hPa | 0 mm | - | - | - |
| 1777822330 | 23.33° C | 48% | 1012.9 hPa | 0 mm | - | - | - |
| 1777820530 | 23.33° C | 37% | 1013.1 hPa | 0 mm | - | - | - |
* Rain since midnight (hover to see other rain measurements)
** Current wind speed in m/s (hover to see current wind gust speed)